NKS1833 TJPS-KFLL
Flight info
| Callsign | NKS1833 |
|---|---|
| Flight time | 2h 39m |
| Altitude | 34000 |
| Route | WLFRD2 BQN L452 HARBG Y421 HAGIT Y352 ZQA OLAHS3 |
| Aircraft | A320/M-SDE3FGHIRWY/LB1 |
Departure
| Time | 2026-05-03 20:47 |
|---|---|
| Airport | Mercedita International Airport (TJPS) |
Arrival
| Time | 2026-05-03 23:26 |
|---|---|
| Airport | Fort Lauderdale Hollywood International Airport (KFLL) |
| Time | Latitude | Longitude | Altitude | Speed | Heading |
|---|---|---|---|---|---|
| 2026-05-03 20:15 | 18.01036 | -66.56272 | 37 ft | 0 kts | 319° |
| 2026-05-03 20:37 | 18.01025 | -66.56263 | 37 ft | 4 kts | 318° |
| 2026-05-03 20:37 | 18.01007 | -66.56243 | 37 ft | 4 kts | 296° |
| 2026-05-03 20:37 | 18.01002 | -66.56228 | 37 ft | 2 kts | 199° |
| 2026-05-03 20:37 | 18.01004 | -66.56227 | 37 ft | 0 kts | 198° |
| 2026-05-03 20:41 | 18.01003 | -66.56227 | 37 ft | 1 kts | 198° |
| 2026-05-03 20:41 | 18.00989 | -66.56232 | 37 ft | 3 kts | 198° |
| 2026-05-03 20:42 | 18.00960 | -66.56243 | 37 ft | 6 kts | 198° |
| 2026-05-03 20:42 | 18.00945 | -66.56279 | 37 ft | 7 kts | 278° |
| 2026-05-03 20:42 | 18.00962 | -66.56332 | 37 ft | 9 kts | 289° |
| 2026-05-03 20:42 | 18.00983 | -66.56399 | 37 ft | 11 kts | 287° |
| 2026-05-03 20:43 | 18.01007 | -66.56478 | 36 ft | 12 kts | 287° |
| 2026-05-03 20:43 | 18.01034 | -66.56571 | 36 ft | 14 kts | 288° |
| 2026-05-03 20:43 | 18.01068 | -66.56678 | 38 ft | 17 kts | 288° |
| 2026-05-03 20:43 | 18.01107 | -66.56802 | 38 ft | 19 kts | 288° |
| 2026-05-03 20:44 | 18.01142 | -66.56917 | 37 ft | 17 kts | 288° |
| 2026-05-03 20:44 | 18.01181 | -66.57046 | 36 ft | 20 kts | 288° |
| 2026-05-03 20:44 | 18.01218 | -66.57165 | 37 ft | 10 kts | 287° |
| 2026-05-03 20:44 | 18.01180 | -66.57218 | 37 ft | 11 kts | 197° |
| 2026-05-03 20:45 | 18.01135 | -66.57283 | 36 ft | 14 kts | 278° |
| 2026-05-03 20:45 | 18.01166 | -66.57379 | 35 ft | 12 kts | 289° |
| 2026-05-03 20:45 | 18.01222 | -66.57448 | 35 ft | 14 kts | 351° |
| 2026-05-03 20:45 | 18.01274 | -66.57492 | 36 ft | 11 kts | 266° |
| 2026-05-03 20:46 | 18.01209 | -66.57508 | 33 ft | 13 kts | 131° |
| 2026-05-03 20:46 | 18.01197 | -66.57482 | 35 ft | 0 kts | 108° |
| 2026-05-03 20:46 | 18.01163 | -66.57374 | 36 ft | 49 kts | 108° |
| 2026-05-03 20:46 | 18.00990 | -66.56816 | 38 ft | 110 kts | 108° |
| 2026-05-03 20:47 | 18.00699 | -66.55897 | 54 ft | 153 kts | 109° |
| 2026-05-03 20:47 | 18.00355 | -66.54874 | 698 ft | 146 kts | 111° |
| 2026-05-03 20:47 | 18.00026 | -66.53846 | 1361 ft | 149 kts | 109° |
| 2026-05-03 20:47 | 17.99714 | -66.52754 | 1731 ft | 165 kts | 108° |
| 2026-05-03 20:48 | 17.99381 | -66.51515 | 2157 ft | 181 kts | 107° |
| 2026-05-03 20:48 | 17.99015 | -66.50207 | 2549 ft | 200 kts | 107° |
| 2026-05-03 20:48 | 17.98579 | -66.48701 | 2942 ft | 225 kts | 107° |
| 2026-05-03 20:48 | 17.98102 | -66.47070 | 3404 ft | 247 kts | 106° |
| 2026-05-03 20:49 | 17.97590 | -66.45319 | 4237 ft | 252 kts | 106° |
| 2026-05-03 20:49 | 17.97056 | -66.43545 | 5107 ft | 259 kts | 110° |
| 2026-05-03 20:49 | 17.96007 | -66.41999 | 5923 ft | 264 kts | 137° |
| 2026-05-03 20:49 | 17.94544 | -66.40878 | 7005 ft | 260 kts | 142° |
| 2026-05-03 20:50 | 17.93094 | -66.39722 | 7749 ft | 267 kts | 136° |
| 2026-05-03 20:50 | 17.91763 | -66.38329 | 8395 ft | 274 kts | 133° |
| 2026-05-03 20:50 | 17.90412 | -66.36911 | 9093 ft | 279 kts | 134° |
| 2026-05-03 20:50 | 17.88993 | -66.35468 | 9803 ft | 284 kts | 135° |
| 2026-05-03 20:51 | 17.87470 | -66.34123 | 10484 ft | 290 kts | 147° |
| 2026-05-03 20:51 | 17.85573 | -66.33364 | 11160 ft | 297 kts | 169° |
| 2026-05-03 20:51 | 17.83499 | -66.33419 | 11829 ft | 303 kts | 191° |
| 2026-05-03 20:51 | 17.81444 | -66.33977 | 12535 ft | 306 kts | 196° |
| 2026-05-03 20:52 | 17.79525 | -66.34966 | 13214 ft | 311 kts | 216° |
| 2026-05-03 20:52 | 17.78003 | -66.36585 | 13859 ft | 315 kts | 235° |
| 2026-05-03 20:52 | 17.77071 | -66.38673 | 14510 ft | 319 kts | 255° |
| 2026-05-03 20:52 | 17.76676 | -66.40971 | 15170 ft | 321 kts | 260° |
| 2026-05-03 20:53 | 17.76356 | -66.43296 | 15823 ft | 323 kts | 266° |
| 2026-05-03 20:53 | 17.76551 | -66.45644 | 16435 ft | 327 kts | 284° |
| 2026-05-03 20:53 | 17.77434 | -66.47850 | 16922 ft | 335 kts | 301° |
| 2026-05-03 20:53 | 17.79018 | -66.49732 | 17049 ft | 355 kts | 321° |
| 2026-05-03 20:54 | 17.81124 | -66.51188 | 17186 ft | 371 kts | 327° |
| 2026-05-03 20:54 | 17.86060 | -66.53077 | 18004 ft | 386 kts | 352° |
| 2026-05-03 20:54 | 17.88752 | -66.53184 | 18506 ft | 390 kts | 0° |
| 2026-05-03 20:55 | 17.91459 | -66.53385 | 19002 ft | 392 kts | 348° |
| 2026-05-03 20:55 | 17.94067 | -66.54223 | 19492 ft | 393 kts | 335° |
| 2026-05-03 20:55 | 17.96459 | -66.55624 | 19978 ft | 394 kts | 323° |
| 2026-05-03 20:55 | 17.98581 | -66.57465 | 20436 ft | 397 kts | 317° |
| 2026-05-03 20:56 | 18.00658 | -66.59388 | 20910 ft | 400 kts | 318° |
| 2026-05-03 20:56 | 18.02758 | -66.61322 | 21361 ft | 403 kts | 318° |
| 2026-05-03 20:56 | 18.04868 | -66.63261 | 21787 ft | 406 kts | 318° |
| 2026-05-03 20:56 | 18.07003 | -66.65223 | 22209 ft | 408 kts | 318° |
| 2026-05-03 20:57 | 18.09145 | -66.67197 | 22633 ft | 411 kts | 318° |
| 2026-05-03 20:57 | 18.11278 | -66.69163 | 23029 ft | 414 kts | 319° |
| 2026-05-03 20:57 | 18.13481 | -66.71195 | 23418 ft | 417 kts | 319° |
| 2026-05-03 20:57 | 18.15667 | -66.73212 | 23787 ft | 420 kts | 319° |
| 2026-05-03 20:58 | 18.17868 | -66.75248 | 24155 ft | 423 kts | 319° |
| 2026-05-03 20:58 | 18.20086 | -66.77299 | 24512 ft | 426 kts | 319° |
| 2026-05-03 20:58 | 18.22317 | -66.79364 | 24882 ft | 428 kts | 319° |
| 2026-05-03 20:58 | 18.24547 | -66.81440 | 25258 ft | 429 kts | 317° |
| 2026-05-03 20:59 | 18.26584 | -66.83696 | 25626 ft | 431 kts | 312° |
| 2026-05-03 20:59 | 18.28624 | -66.86075 | 26010 ft | 433 kts | 312° |
| 2026-05-03 20:59 | 18.30648 | -66.88433 | 26371 ft | 435 kts | 312° |
| 2026-05-03 20:59 | 18.32654 | -66.90768 | 26715 ft | 436 kts | 313° |
| 2026-05-03 21:00 | 18.34692 | -66.93140 | 27055 ft | 438 kts | 312° |
| 2026-05-03 21:00 | 18.35383 | -66.93946 | 27164 ft | 439 kts | 312° |
| 2026-05-03 21:00 | 18.38794 | -66.97923 | 27710 ft | 442 kts | 313° |
| 2026-05-03 21:00 | 18.40857 | -67.00330 | 28037 ft | 443 kts | 313° |
| 2026-05-03 21:01 | 18.42926 | -67.02746 | 28369 ft | 445 kts | 313° |
| 2026-05-03 21:01 | 18.45003 | -67.05173 | 28713 ft | 447 kts | 313° |
| 2026-05-03 21:01 | 18.47088 | -67.07611 | 29049 ft | 449 kts | 313° |
| 2026-05-03 21:01 | 18.49186 | -67.10063 | 29403 ft | 451 kts | 313° |
| 2026-05-03 21:02 | 18.51256 | -67.12554 | 29736 ft | 453 kts | 311° |
| 2026-05-03 21:02 | 18.53255 | -67.15118 | 30068 ft | 455 kts | 309° |
| 2026-05-03 21:02 | 18.55217 | -67.17749 | 30393 ft | 456 kts | 308° |
| 2026-05-03 21:02 | 18.57159 | -67.20405 | 30708 ft | 458 kts | 308° |
| 2026-05-03 21:03 | 18.59129 | -67.23104 | 31032 ft | 460 kts | 308° |
| 2026-05-03 21:03 | 18.61074 | -67.25739 | 31342 ft | 462 kts | 309° |
| 2026-05-03 21:03 | 18.63081 | -67.28427 | 31757 ft | 461 kts | 309° |
| 2026-05-03 21:03 | 18.65071 | -67.31069 | 32226 ft | 459 kts | 309° |
| 2026-05-03 21:04 | 18.67057 | -67.33694 | 32676 ft | 457 kts | 309° |
| 2026-05-03 21:04 | 18.69032 | -67.36307 | 33123 ft | 455 kts | 309° |
| 2026-05-03 21:04 | 18.70997 | -67.38915 | 33567 ft | 453 kts | 309° |
| 2026-05-03 21:04 | 18.72954 | -67.41515 | 33951 ft | 453 kts | 309° |
| 2026-05-03 21:05 | 18.76833 | -67.46676 | 34057 ft | 444 kts | 309° |
| 2026-05-03 21:05 | 18.80657 | -67.51776 | 34055 ft | 441 kts | 309° |
| 2026-05-03 21:06 | 18.84443 | -67.56822 | 34054 ft | 441 kts | 309° |
| 2026-05-03 21:06 | 18.88248 | -67.61902 | 34054 ft | 442 kts | 309° |
| 2026-05-03 21:07 | 18.92058 | -67.66997 | 34055 ft | 442 kts | 309° |
| 2026-05-03 21:07 | 18.95867 | -67.72088 | 34049 ft | 442 kts | 308° |
| 2026-05-03 21:08 | 18.99686 | -67.77198 | 34050 ft | 443 kts | 308° |
| 2026-05-03 21:08 | 19.03505 | -67.82311 | 34051 ft | 443 kts | 308° |
| 2026-05-03 21:09 | 19.07329 | -67.87434 | 34057 ft | 444 kts | 308° |
| 2026-05-03 21:09 | 19.11156 | -67.92546 | 34056 ft | 444 kts | 308° |
| 2026-05-03 21:10 | 19.14980 | -67.97669 | 34053 ft | 443 kts | 308° |
| 2026-05-03 21:10 | 19.18795 | -68.02787 | 34051 ft | 443 kts | 308° |
| 2026-05-03 21:11 | 19.22611 | -68.07916 | 34049 ft | 443 kts | 308° |
| 2026-05-03 21:11 | 19.26417 | -68.13048 | 34046 ft | 443 kts | 308° |
| 2026-05-03 21:12 | 19.29585 | -68.17323 | 34048 ft | 444 kts | 308° |
| 2026-05-03 21:12 | 19.33401 | -68.22458 | 34052 ft | 444 kts | 308° |
| 2026-05-03 21:13 | 19.37217 | -68.27599 | 34053 ft | 444 kts | 308° |
| 2026-05-03 21:13 | 19.41033 | -68.32747 | 34058 ft | 444 kts | 308° |
| 2026-05-03 21:14 | 19.44850 | -68.37896 | 34057 ft | 444 kts | 308° |
| 2026-05-03 21:14 | 19.48658 | -68.43041 | 34051 ft | 444 kts | 308° |
| 2026-05-03 21:15 | 19.52462 | -68.48190 | 34048 ft | 443 kts | 307° |
| 2026-05-03 21:15 | 19.56260 | -68.53338 | 34043 ft | 444 kts | 307° |
| 2026-05-03 21:16 | 19.60066 | -68.58492 | 34039 ft | 444 kts | 307° |
| 2026-05-03 21:16 | 19.63868 | -68.63645 | 34028 ft | 443 kts | 307° |
| 2026-05-03 21:17 | 19.67664 | -68.68797 | 34034 ft | 443 kts | 307° |
| 2026-05-03 21:17 | 19.71458 | -68.73959 | 34026 ft | 443 kts | 307° |
| 2026-05-03 21:18 | 19.75250 | -68.79108 | 34024 ft | 443 kts | 307° |
| 2026-05-03 21:18 | 19.79043 | -68.84271 | 34024 ft | 443 kts | 307° |
| 2026-05-03 21:19 | 19.82834 | -68.89433 | 34028 ft | 444 kts | 307° |
| 2026-05-03 21:19 | 19.86624 | -68.94599 | 34031 ft | 444 kts | 308° |
| 2026-05-03 21:20 | 19.90601 | -68.99624 | 34026 ft | 444 kts | 311° |
| 2026-05-03 21:20 | 19.94764 | -69.04469 | 34021 ft | 444 kts | 312° |
| 2026-05-03 21:21 | 19.98923 | -69.09315 | 34027 ft | 444 kts | 311° |
| 2026-05-03 21:21 | 20.03025 | -69.14220 | 34031 ft | 444 kts | 310° |
| 2026-05-03 21:22 | 20.07101 | -69.19146 | 34033 ft | 443 kts | 310° |
| 2026-05-03 21:22 | 20.11174 | -69.24062 | 34024 ft | 443 kts | 310° |
| 2026-05-03 21:23 | 20.15249 | -69.28970 | 34033 ft | 442 kts | 310° |
| 2026-05-03 21:23 | 20.19330 | -69.33873 | 34032 ft | 442 kts | 310° |
| 2026-05-03 21:24 | 20.23380 | -69.38743 | 34026 ft | 442 kts | 310° |
| 2026-05-03 21:24 | 20.27456 | -69.43651 | 34031 ft | 442 kts | 310° |
| 2026-05-03 21:25 | 20.31521 | -69.48554 | 34026 ft | 442 kts | 310° |
| 2026-05-03 21:25 | 20.35587 | -69.53472 | 34017 ft | 442 kts | 310° |
| 2026-05-03 21:26 | 20.39650 | -69.58388 | 34018 ft | 442 kts | 310° |
| 2026-05-03 21:26 | 20.43708 | -69.63301 | 34016 ft | 442 kts | 310° |
| 2026-05-03 21:27 | 20.47766 | -69.68224 | 34013 ft | 442 kts | 310° |
| 2026-05-03 21:27 | 20.51822 | -69.73143 | 34005 ft | 441 kts | 310° |
| 2026-05-03 21:28 | 20.55878 | -69.78057 | 34008 ft | 441 kts | 310° |
| 2026-05-03 21:28 | 20.59933 | -69.82969 | 34004 ft | 441 kts | 310° |
| 2026-05-03 21:29 | 20.63986 | -69.87888 | 34002 ft | 441 kts | 310° |
| 2026-05-03 21:29 | 20.68031 | -69.92810 | 34001 ft | 441 kts | 310° |
| 2026-05-03 21:30 | 20.72064 | -69.97733 | 34002 ft | 440 kts | 310° |
| 2026-05-03 21:30 | 20.76104 | -70.02648 | 34002 ft | 440 kts | 310° |
| 2026-05-03 21:31 | 20.80131 | -70.07556 | 34002 ft | 439 kts | 310° |
| 2026-05-03 21:31 | 20.84151 | -70.12470 | 34005 ft | 439 kts | 310° |
| 2026-05-03 21:32 | 20.88173 | -70.17376 | 34003 ft | 439 kts | 310° |
| 2026-05-03 21:32 | 20.92191 | -70.22284 | 34005 ft | 438 kts | 310° |
| 2026-05-03 21:33 | 20.96192 | -70.27185 | 34003 ft | 437 kts | 310° |
| 2026-05-03 21:33 | 21.00195 | -70.32089 | 34003 ft | 437 kts | 310° |
| 2026-05-03 21:34 | 21.04194 | -70.36990 | 34005 ft | 437 kts | 310° |
| 2026-05-03 21:34 | 21.08184 | -70.41893 | 34004 ft | 437 kts | 310° |
| 2026-05-03 21:35 | 21.12171 | -70.46794 | 34003 ft | 436 kts | 310° |
| 2026-05-03 21:35 | 21.16159 | -70.51694 | 34006 ft | 436 kts | 310° |
| 2026-05-03 21:36 | 21.20122 | -70.56564 | 34007 ft | 436 kts | 310° |
| 2026-05-03 21:36 | 21.24128 | -70.61495 | 34009 ft | 436 kts | 310° |
| 2026-05-03 21:37 | 21.28108 | -70.66401 | 34008 ft | 436 kts | 309° |
| 2026-05-03 21:37 | 21.32086 | -70.71309 | 34009 ft | 436 kts | 309° |
| 2026-05-03 21:38 | 21.36058 | -70.76217 | 34010 ft | 435 kts | 309° |
| 2026-05-03 21:38 | 21.40027 | -70.81129 | 34010 ft | 435 kts | 309° |
| 2026-05-03 21:39 | 21.43966 | -70.86001 | 34010 ft | 435 kts | 309° |
| 2026-05-03 21:39 | 21.47938 | -70.90911 | 34007 ft | 435 kts | 309° |
| 2026-05-03 21:40 | 21.51903 | -70.95828 | 34008 ft | 435 kts | 309° |
| 2026-05-03 21:40 | 21.55864 | -71.00743 | 34008 ft | 435 kts | 309° |
| 2026-05-03 21:41 | 21.59414 | -71.05968 | 34010 ft | 433 kts | 300° |
| 2026-05-03 21:41 | 21.62555 | -71.11479 | 34007 ft | 432 kts | 300° |
| 2026-05-03 21:42 | 21.65696 | -71.16985 | 34009 ft | 432 kts | 300° |
| 2026-05-03 21:42 | 21.68843 | -71.22503 | 34008 ft | 432 kts | 300° |
| 2026-05-03 21:43 | 21.71973 | -71.28019 | 34010 ft | 432 kts | 300° |
| 2026-05-03 21:43 | 21.75106 | -71.33531 | 34007 ft | 432 kts | 300° |
| 2026-05-03 21:44 | 21.78246 | -71.39044 | 34011 ft | 432 kts | 300° |
| 2026-05-03 21:44 | 21.81376 | -71.44557 | 34010 ft | 431 kts | 300° |
| 2026-05-03 21:45 | 21.84495 | -71.50062 | 34008 ft | 431 kts | 300° |
| 2026-05-03 21:45 | 21.87613 | -71.55569 | 34010 ft | 431 kts | 300° |
| 2026-05-03 21:46 | 21.90733 | -71.61078 | 34008 ft | 431 kts | 300° |
| 2026-05-03 21:46 | 21.93847 | -71.66586 | 34010 ft | 430 kts | 300° |
| 2026-05-03 21:47 | 21.96959 | -71.72100 | 34010 ft | 430 kts | 300° |
| 2026-05-03 21:47 | 22.00069 | -71.77610 | 34007 ft | 430 kts | 300° |
| 2026-05-03 21:48 | 22.03171 | -71.83117 | 34008 ft | 430 kts | 300° |
| 2026-05-03 21:48 | 22.06272 | -71.88629 | 34006 ft | 430 kts | 300° |
| 2026-05-03 21:49 | 22.09366 | -71.94133 | 34004 ft | 429 kts | 300° |
| 2026-05-03 21:49 | 22.12467 | -71.99644 | 34002 ft | 429 kts | 300° |
| 2026-05-03 21:50 | 22.15557 | -72.05149 | 33999 ft | 429 kts | 300° |
| 2026-05-03 21:50 | 22.18641 | -72.10671 | 33995 ft | 429 kts | 300° |
| 2026-05-03 21:51 | 22.21726 | -72.16186 | 33999 ft | 429 kts | 300° |
| 2026-05-03 21:51 | 22.24811 | -72.21704 | 34000 ft | 430 kts | 299° |
| 2026-05-03 21:52 | 22.27902 | -72.27231 | 34002 ft | 430 kts | 299° |
| 2026-05-03 21:52 | 22.30989 | -72.32750 | 34006 ft | 429 kts | 299° |
| 2026-05-03 21:53 | 22.34069 | -72.38271 | 34007 ft | 430 kts | 299° |
| 2026-05-03 21:53 | 22.37154 | -72.43811 | 34014 ft | 430 kts | 299° |
| 2026-05-03 21:54 | 22.39732 | -72.48447 | 34017 ft | 430 kts | 299° |
| 2026-05-03 21:54 | 22.42812 | -72.53985 | 34016 ft | 430 kts | 299° |
| 2026-05-03 21:55 | 22.45863 | -72.59487 | 34025 ft | 429 kts | 299° |
| 2026-05-03 21:55 | 22.48952 | -72.65058 | 34023 ft | 429 kts | 299° |
| 2026-05-03 21:56 | 22.52018 | -72.70594 | 34023 ft | 429 kts | 298° |
| 2026-05-03 21:56 | 22.55085 | -72.76128 | 34022 ft | 429 kts | 298° |
| 2026-05-03 21:57 | 22.58139 | -72.81630 | 34020 ft | 429 kts | 298° |
| 2026-05-03 21:57 | 22.61196 | -72.87163 | 34022 ft | 428 kts | 298° |
| 2026-05-03 21:58 | 22.64262 | -72.92734 | 34022 ft | 428 kts | 298° |
| 2026-05-03 21:58 | 22.67308 | -72.98263 | 34016 ft | 428 kts | 298° |
| 2026-05-03 21:59 | 22.70343 | -73.03764 | 34021 ft | 428 kts | 298° |
| 2026-05-03 21:59 | 22.73383 | -73.09297 | 34020 ft | 428 kts | 298° |
| 2026-05-03 22:00 | 22.76422 | -73.14837 | 34020 ft | 427 kts | 298° |
| 2026-05-03 22:00 | 22.79469 | -73.20376 | 34023 ft | 428 kts | 298° |
| 2026-05-03 22:01 | 22.82498 | -73.25910 | 34021 ft | 427 kts | 298° |
| 2026-05-03 22:01 | 22.85534 | -73.31454 | 34023 ft | 427 kts | 298° |
| 2026-05-03 22:02 | 22.88570 | -73.36994 | 34024 ft | 427 kts | 298° |
| 2026-05-03 22:02 | 22.91600 | -73.42545 | 34033 ft | 427 kts | 298° |
| 2026-05-03 22:03 | 22.94630 | -73.48087 | 34037 ft | 427 kts | 297° |
| 2026-05-03 22:03 | 22.97656 | -73.53635 | 34037 ft | 427 kts | 297° |
| 2026-05-03 22:04 | 23.00667 | -73.59173 | 34036 ft | 426 kts | 297° |
| 2026-05-03 22:04 | 23.03677 | -73.64716 | 34037 ft | 426 kts | 297° |
| 2026-05-03 22:05 | 23.06692 | -73.70239 | 34038 ft | 425 kts | 297° |
| 2026-05-03 22:05 | 23.09678 | -73.75735 | 34028 ft | 425 kts | 297° |
| 2026-05-03 22:06 | 23.12700 | -73.81305 | 34035 ft | 425 kts | 297° |
| 2026-05-03 22:06 | 23.15695 | -73.86845 | 34045 ft | 425 kts | 297° |
| 2026-05-03 22:07 | 23.18691 | -73.92381 | 34046 ft | 425 kts | 297° |
| 2026-05-03 22:07 | 23.21681 | -73.97909 | 34047 ft | 424 kts | 297° |
| 2026-05-03 22:08 | 23.24661 | -74.03438 | 34045 ft | 424 kts | 297° |
| 2026-05-03 22:08 | 23.27640 | -74.08973 | 34047 ft | 423 kts | 297° |
| 2026-05-03 22:09 | 23.30618 | -74.14487 | 34048 ft | 423 kts | 297° |
| 2026-05-03 22:10 | 23.35074 | -74.22755 | 34048 ft | 422 kts | 296° |
| 2026-05-03 22:10 | 23.38031 | -74.28271 | 34046 ft | 422 kts | 296° |
| 2026-05-03 22:11 | 23.40988 | -74.33787 | 34045 ft | 421 kts | 296° |
| 2026-05-03 22:11 | 23.43938 | -74.39296 | 34048 ft | 421 kts | 296° |
| 2026-05-03 22:12 | 23.46891 | -74.44803 | 34054 ft | 421 kts | 296° |
| 2026-05-03 22:12 | 23.49845 | -74.50316 | 34054 ft | 421 kts | 296° |
| 2026-05-03 22:13 | 23.52783 | -74.55819 | 34053 ft | 420 kts | 296° |
| 2026-05-03 22:13 | 23.55719 | -74.61328 | 34050 ft | 420 kts | 296° |
| 2026-05-03 22:14 | 23.58656 | -74.66835 | 34050 ft | 420 kts | 296° |
| 2026-05-03 22:14 | 23.61589 | -74.72345 | 34049 ft | 420 kts | 296° |
| 2026-05-03 22:15 | 23.64504 | -74.77829 | 34050 ft | 420 kts | 296° |
| 2026-05-03 22:15 | 23.67455 | -74.83379 | 34050 ft | 420 kts | 296° |
| 2026-05-03 22:16 | 23.70393 | -74.88898 | 34052 ft | 420 kts | 296° |
| 2026-05-03 22:16 | 23.73308 | -74.94382 | 34054 ft | 420 kts | 296° |
| 2026-05-03 22:17 | 23.76250 | -74.99939 | 34055 ft | 420 kts | 296° |
| 2026-05-03 22:17 | 23.79169 | -75.05461 | 34056 ft | 420 kts | 296° |
| 2026-05-03 22:18 | 23.82093 | -75.10992 | 34058 ft | 420 kts | 296° |
| 2026-05-03 22:18 | 23.85005 | -75.16513 | 34060 ft | 419 kts | 296° |
| 2026-05-03 22:19 | 23.87886 | -75.21991 | 34057 ft | 419 kts | 296° |
| 2026-05-03 22:19 | 23.90811 | -75.27538 | 34056 ft | 419 kts | 296° |
| 2026-05-03 22:20 | 23.93696 | -75.33018 | 34057 ft | 419 kts | 296° |
| 2026-05-03 22:20 | 23.96595 | -75.38539 | 34059 ft | 419 kts | 296° |
| 2026-05-03 22:21 | 23.99497 | -75.44062 | 34058 ft | 418 kts | 296° |
| 2026-05-03 22:21 | 24.02395 | -75.49584 | 34057 ft | 418 kts | 295° |
| 2026-05-03 22:22 | 24.05287 | -75.55101 | 34058 ft | 417 kts | 295° |
| 2026-05-03 22:22 | 24.08165 | -75.60603 | 34057 ft | 417 kts | 295° |
| 2026-05-03 22:23 | 24.11042 | -75.66105 | 34058 ft | 417 kts | 295° |
| 2026-05-03 22:23 | 24.13913 | -75.71619 | 34058 ft | 416 kts | 295° |
| 2026-05-03 22:24 | 24.16780 | -75.77127 | 34054 ft | 416 kts | 295° |
| 2026-05-03 22:24 | 24.19652 | -75.82632 | 34051 ft | 416 kts | 295° |
| 2026-05-03 22:25 | 24.22519 | -75.88140 | 34051 ft | 416 kts | 295° |
| 2026-05-03 22:25 | 24.25385 | -75.93645 | 34050 ft | 416 kts | 295° |
| 2026-05-03 22:26 | 24.28244 | -75.99164 | 34047 ft | 416 kts | 295° |
| 2026-05-03 22:26 | 24.31095 | -76.04677 | 34048 ft | 416 kts | 295° |
| 2026-05-03 22:27 | 24.33952 | -76.10181 | 34050 ft | 415 kts | 295° |
| 2026-05-03 22:27 | 24.36805 | -76.15696 | 34051 ft | 415 kts | 295° |
| 2026-05-03 22:28 | 24.39647 | -76.21211 | 34052 ft | 415 kts | 295° |
| 2026-05-03 22:28 | 24.42497 | -76.26720 | 34052 ft | 415 kts | 295° |
| 2026-05-03 22:29 | 24.45348 | -76.32238 | 34051 ft | 415 kts | 295° |
| 2026-05-03 22:29 | 24.48185 | -76.37750 | 34051 ft | 415 kts | 295° |
| 2026-05-03 22:30 | 24.51010 | -76.43269 | 34051 ft | 414 kts | 295° |
| 2026-05-03 22:30 | 24.53824 | -76.48753 | 34052 ft | 414 kts | 295° |
| 2026-05-03 22:31 | 24.56662 | -76.54261 | 34055 ft | 414 kts | 295° |
| 2026-05-03 22:31 | 24.59485 | -76.59767 | 34053 ft | 413 kts | 294° |
| 2026-05-03 22:32 | 24.62295 | -76.65272 | 34054 ft | 413 kts | 294° |
| 2026-05-03 22:32 | 24.65113 | -76.70773 | 34052 ft | 413 kts | 294° |
| 2026-05-03 22:33 | 24.67921 | -76.76272 | 34052 ft | 412 kts | 294° |
| 2026-05-03 22:33 | 24.70721 | -76.81771 | 34051 ft | 412 kts | 294° |
| 2026-05-03 22:34 | 24.73518 | -76.87261 | 34049 ft | 412 kts | 294° |
| 2026-05-03 22:34 | 24.76319 | -76.92773 | 34048 ft | 412 kts | 294° |
| 2026-05-03 22:35 | 24.78645 | -76.97342 | 34045 ft | 411 kts | 294° |
| 2026-05-03 22:35 | 24.81439 | -77.02825 | 34032 ft | 411 kts | 294° |
| 2026-05-03 22:36 | 24.84222 | -77.08318 | 34047 ft | 411 kts | 294° |
| 2026-05-03 22:36 | 24.86999 | -77.13808 | 34048 ft | 410 kts | 294° |
| 2026-05-03 22:37 | 24.89776 | -77.19293 | 34046 ft | 410 kts | 294° |
| 2026-05-03 22:37 | 24.92542 | -77.24771 | 34048 ft | 409 kts | 294° |
| 2026-05-03 22:38 | 24.95313 | -77.30249 | 34048 ft | 409 kts | 293° |
| 2026-05-03 22:38 | 24.98081 | -77.35729 | 34049 ft | 409 kts | 293° |
| 2026-05-03 22:39 | 25.00839 | -77.41213 | 34048 ft | 409 kts | 293° |
| 2026-05-03 22:39 | 25.03345 | -77.46749 | 34048 ft | 404 kts | 287° |
| 2026-05-03 22:40 | 25.05483 | -77.52470 | 34048 ft | 404 kts | 287° |
| 2026-05-03 22:40 | 25.07636 | -77.58189 | 34048 ft | 403 kts | 287° |
| 2026-05-03 22:41 | 25.09783 | -77.63907 | 34050 ft | 403 kts | 287° |
| 2026-05-03 22:41 | 25.11918 | -77.69627 | 34050 ft | 403 kts | 287° |
| 2026-05-03 22:42 | 25.14052 | -77.75347 | 34051 ft | 403 kts | 287° |
| 2026-05-03 22:42 | 25.16178 | -77.81054 | 34045 ft | 402 kts | 287° |
| 2026-05-03 22:43 | 25.18303 | -77.86767 | 34046 ft | 402 kts | 287° |
| 2026-05-03 22:43 | 25.20419 | -77.92472 | 34046 ft | 401 kts | 287° |
| 2026-05-03 22:44 | 25.22530 | -77.98178 | 34047 ft | 401 kts | 287° |
| 2026-05-03 22:44 | 25.24640 | -78.03879 | 34045 ft | 401 kts | 287° |
| 2026-05-03 22:44 | 25.25694 | -78.06728 | 33862 ft | 402 kts | 287° |
| 2026-05-03 22:45 | 25.26753 | -78.09584 | 33612 ft | 400 kts | 287° |
| 2026-05-03 22:45 | 25.27807 | -78.12424 | 33361 ft | 399 kts | 286° |
| 2026-05-03 22:45 | 25.28856 | -78.15255 | 33111 ft | 398 kts | 286° |
| 2026-05-03 22:45 | 25.29899 | -78.18081 | 32861 ft | 397 kts | 286° |
| 2026-05-03 22:46 | 25.30958 | -78.20896 | 32607 ft | 396 kts | 287° |
| 2026-05-03 22:46 | 25.32061 | -78.23690 | 32342 ft | 395 kts | 288° |
| 2026-05-03 22:46 | 25.33180 | -78.26443 | 31889 ft | 392 kts | 288° |
| 2026-05-03 22:46 | 25.34301 | -78.29181 | 31362 ft | 390 kts | 288° |
| 2026-05-03 22:47 | 25.35414 | -78.31904 | 30837 ft | 387 kts | 288° |
| 2026-05-03 22:47 | 25.36508 | -78.34605 | 30321 ft | 385 kts | 288° |
| 2026-05-03 22:47 | 25.37593 | -78.37310 | 29807 ft | 383 kts | 288° |
| 2026-05-03 22:47 | 25.38667 | -78.40002 | 29299 ft | 381 kts | 288° |
| 2026-05-03 22:48 | 25.39732 | -78.42678 | 28804 ft | 379 kts | 288° |
| 2026-05-03 22:48 | 25.40789 | -78.45337 | 28317 ft | 377 kts | 288° |
| 2026-05-03 22:48 | 25.41834 | -78.47981 | 27844 ft | 374 kts | 287° |
| 2026-05-03 22:48 | 25.42854 | -78.50615 | 27367 ft | 371 kts | 287° |
| 2026-05-03 22:49 | 25.43854 | -78.53231 | 26925 ft | 368 kts | 287° |
| 2026-05-03 22:49 | 25.44841 | -78.55831 | 26485 ft | 366 kts | 287° |
| 2026-05-03 22:49 | 25.45824 | -78.58418 | 26030 ft | 364 kts | 287° |
| 2026-05-03 22:49 | 25.46807 | -78.60994 | 25594 ft | 361 kts | 288° |
| 2026-05-03 22:50 | 25.47780 | -78.63539 | 25152 ft | 359 kts | 288° |
| 2026-05-03 22:50 | 25.48752 | -78.66074 | 24708 ft | 356 kts | 288° |
| 2026-05-03 22:50 | 25.49703 | -78.68554 | 24269 ft | 353 kts | 288° |
| 2026-05-03 22:50 | 25.50661 | -78.71054 | 23801 ft | 351 kts | 288° |
| 2026-05-03 22:51 | 25.51610 | -78.73530 | 23350 ft | 349 kts | 288° |
| 2026-05-03 22:51 | 25.52552 | -78.75993 | 22876 ft | 347 kts | 288° |
| 2026-05-03 22:51 | 25.53486 | -78.78442 | 22411 ft | 344 kts | 288° |
| 2026-05-03 22:51 | 25.54414 | -78.80878 | 21936 ft | 342 kts | 288° |
| 2026-05-03 22:52 | 25.55346 | -78.83324 | 21457 ft | 340 kts | 289° |
| 2026-05-03 22:52 | 25.56264 | -78.85730 | 20981 ft | 338 kts | 289° |
| 2026-05-03 22:52 | 25.57174 | -78.88118 | 20500 ft | 336 kts | 289° |
| 2026-05-03 22:52 | 25.58080 | -78.90495 | 20014 ft | 334 kts | 289° |
| 2026-05-03 22:53 | 25.58982 | -78.92863 | 19549 ft | 332 kts | 289° |
| 2026-05-03 22:53 | 25.59881 | -78.95218 | 19056 ft | 330 kts | 289° |
| 2026-05-03 22:53 | 25.60768 | -78.97554 | 18599 ft | 329 kts | 289° |
| 2026-05-03 22:53 | 25.61648 | -78.99876 | 18129 ft | 327 kts | 289° |
| 2026-05-03 22:54 | 25.62520 | -79.02169 | 17652 ft | 325 kts | 289° |
| 2026-05-03 22:54 | 25.63394 | -79.04470 | 17186 ft | 323 kts | 289° |
| 2026-05-03 22:54 | 25.64259 | -79.06759 | 16729 ft | 321 kts | 289° |
| 2026-05-03 22:54 | 25.65116 | -79.09042 | 16264 ft | 320 kts | 289° |
| 2026-05-03 22:55 | 25.65966 | -79.11313 | 15810 ft | 318 kts | 289° |
| 2026-05-03 22:55 | 25.66816 | -79.13576 | 15357 ft | 317 kts | 289° |
| 2026-05-03 22:55 | 25.67661 | -79.15822 | 14906 ft | 316 kts | 289° |
| 2026-05-03 22:55 | 25.68507 | -79.18070 | 14457 ft | 314 kts | 289° |
| 2026-05-03 22:56 | 25.69344 | -79.20301 | 14015 ft | 313 kts | 289° |
| 2026-05-03 22:56 | 25.70175 | -79.22525 | 13574 ft | 312 kts | 289° |
| 2026-05-03 22:56 | 25.71006 | -79.24754 | 13133 ft | 311 kts | 289° |
| 2026-05-03 22:56 | 25.71830 | -79.26965 | 12699 ft | 310 kts | 290° |
| 2026-05-03 22:57 | 25.72656 | -79.29175 | 12260 ft | 309 kts | 289° |
| 2026-05-03 22:57 | 25.73476 | -79.31374 | 11859 ft | 308 kts | 289° |
| 2026-05-03 22:57 | 25.74285 | -79.33562 | 11432 ft | 307 kts | 289° |
| 2026-05-03 22:57 | 25.75088 | -79.35749 | 11064 ft | 304 kts | 289° |
| 2026-05-03 22:58 | 25.75886 | -79.37930 | 10569 ft | 306 kts | 289° |
| 2026-05-03 22:58 | 25.76677 | -79.40095 | 10332 ft | 299 kts | 289° |
| 2026-05-03 22:58 | 25.77445 | -79.42197 | 10168 ft | 290 kts | 289° |
| 2026-05-03 22:58 | 25.78194 | -79.44249 | 9993 ft | 284 kts | 289° |
| 2026-05-03 22:59 | 25.78939 | -79.46294 | 9691 ft | 288 kts | 289° |
| 2026-05-03 22:59 | 25.79688 | -79.48349 | 9334 ft | 286 kts | 289° |
| 2026-05-03 22:59 | 25.80437 | -79.50397 | 8867 ft | 285 kts | 289° |
| 2026-05-03 22:59 | 25.81181 | -79.52430 | 8431 ft | 285 kts | 289° |
| 2026-05-03 23:00 | 25.81924 | -79.54460 | 8114 ft | 283 kts | 290° |
| 2026-05-03 23:00 | 25.82667 | -79.56490 | 7727 ft | 283 kts | 290° |
| 2026-05-03 23:00 | 25.83406 | -79.58508 | 7314 ft | 284 kts | 290° |
| 2026-05-03 23:00 | 25.84141 | -79.60514 | 6933 ft | 277 kts | 290° |
| 2026-05-03 23:01 | 25.84875 | -79.62482 | 6421 ft | 276 kts | 290° |
| 2026-05-03 23:01 | 25.85614 | -79.64430 | 6056 ft | 275 kts | 291° |
| 2026-05-03 23:01 | 25.86394 | -79.66355 | 6004 ft | 273 kts | 292° |
| 2026-05-03 23:01 | 25.87206 | -79.68250 | 6009 ft | 272 kts | 294° |
| 2026-05-03 23:02 | 25.88034 | -79.70152 | 6010 ft | 273 kts | 294° |
| 2026-05-03 23:02 | 25.88866 | -79.72049 | 6012 ft | 273 kts | 294° |
| 2026-05-03 23:02 | 25.89695 | -79.73947 | 6010 ft | 273 kts | 294° |
| 2026-05-03 23:02 | 25.90520 | -79.75855 | 6010 ft | 274 kts | 294° |
| 2026-05-03 23:03 | 25.91339 | -79.77761 | 6006 ft | 274 kts | 293° |
| 2026-05-03 23:03 | 25.92150 | -79.79668 | 6010 ft | 273 kts | 293° |
| 2026-05-03 23:03 | 25.92963 | -79.81583 | 6009 ft | 274 kts | 293° |
| 2026-05-03 23:03 | 25.93775 | -79.83490 | 6007 ft | 274 kts | 293° |
| 2026-05-03 23:04 | 25.94591 | -79.85403 | 6011 ft | 273 kts | 293° |
| 2026-05-03 23:04 | 25.95406 | -79.87316 | 6009 ft | 274 kts | 293° |
| 2026-05-03 23:04 | 25.96218 | -79.89222 | 6008 ft | 274 kts | 293° |
| 2026-05-03 23:04 | 25.97029 | -79.91137 | 6012 ft | 273 kts | 293° |
| 2026-05-03 23:05 | 25.97566 | -79.92400 | 6009 ft | 274 kts | 293° |
| 2026-05-03 23:05 | 25.98301 | -79.94129 | 6009 ft | 274 kts | 294° |
| 2026-05-03 23:05 | 25.99317 | -79.95920 | 6007 ft | 276 kts | 308° |
| 2026-05-03 23:05 | 26.00604 | -79.97517 | 6010 ft | 277 kts | 310° |
| 2026-05-03 23:06 | 26.01891 | -79.99097 | 6006 ft | 277 kts | 310° |
| 2026-05-03 23:06 | 26.03181 | -80.00684 | 6010 ft | 277 kts | 310° |
| 2026-05-03 23:06 | 26.04473 | -80.02276 | 6009 ft | 277 kts | 310° |
| 2026-05-03 23:06 | 26.05750 | -80.03848 | 6009 ft | 277 kts | 310° |
| 2026-05-03 23:07 | 26.07015 | -80.05408 | 6010 ft | 276 kts | 310° |
| 2026-05-03 23:07 | 26.08288 | -80.06982 | 6004 ft | 277 kts | 310° |
| 2026-05-03 23:07 | 26.09584 | -80.08585 | 5998 ft | 277 kts | 310° |
| 2026-05-03 23:07 | 26.10887 | -80.10197 | 6001 ft | 277 kts | 310° |
| 2026-05-03 23:08 | 26.12177 | -80.11794 | 5999 ft | 277 kts | 309° |
| 2026-05-03 23:08 | 26.13458 | -80.13387 | 5999 ft | 276 kts | 308° |
| 2026-05-03 23:08 | 26.14476 | -80.15163 | 6008 ft | 273 kts | 291° |
| 2026-05-03 23:08 | 26.14985 | -80.17183 | 6007 ft | 271 kts | 275° |
| 2026-05-03 23:09 | 26.15038 | -80.19270 | 6008 ft | 269 kts | 268° |
| 2026-05-03 23:09 | 26.15041 | -80.21275 | 6007 ft | 257 kts | 269° |
| 2026-05-03 23:09 | 26.15050 | -80.23285 | 5785 ft | 263 kts | 269° |
| 2026-05-03 23:09 | 26.15061 | -80.25339 | 5528 ft | 260 kts | 269° |
| 2026-05-03 23:10 | 26.15083 | -80.27327 | 5194 ft | 261 kts | 270° |
| 2026-05-03 23:10 | 26.15107 | -80.29333 | 5030 ft | 258 kts | 270° |
| 2026-05-03 23:10 | 26.15113 | -80.31323 | 5018 ft | 258 kts | 269° |
| 2026-05-03 23:10 | 26.15100 | -80.33349 | 5018 ft | 258 kts | 269° |
| 2026-05-03 23:11 | 26.15079 | -80.35318 | 5019 ft | 258 kts | 268° |
| 2026-05-03 23:11 | 26.15006 | -80.39257 | 5021 ft | 258 kts | 268° |
| 2026-05-03 23:11 | 26.14963 | -80.41280 | 5019 ft | 258 kts | 268° |
| 2026-05-03 23:12 | 26.14918 | -80.43254 | 5019 ft | 259 kts | 268° |
| 2026-05-03 23:12 | 26.14875 | -80.45222 | 5013 ft | 248 kts | 268° |
| 2026-05-03 23:12 | 26.14835 | -80.47111 | 4889 ft | 235 kts | 268° |
| 2026-05-03 23:12 | 26.14800 | -80.48866 | 4767 ft | 227 kts | 268° |
| 2026-05-03 23:13 | 26.14762 | -80.50617 | 4635 ft | 226 kts | 268° |
| 2026-05-03 23:13 | 26.14726 | -80.52365 | 4517 ft | 226 kts | 268° |
| 2026-05-03 23:13 | 26.14689 | -80.54115 | 4393 ft | 226 kts | 268° |
| 2026-05-03 23:13 | 26.14650 | -80.55866 | 4260 ft | 225 kts | 268° |
| 2026-05-03 23:14 | 26.14610 | -80.57610 | 4141 ft | 225 kts | 268° |
| 2026-05-03 23:14 | 26.14571 | -80.59353 | 4015 ft | 225 kts | 269° |
| 2026-05-03 23:14 | 26.14529 | -80.61095 | 3890 ft | 225 kts | 269° |
| 2026-05-03 23:14 | 26.14486 | -80.62838 | 3765 ft | 225 kts | 269° |
| 2026-05-03 23:15 | 26.14445 | -80.64583 | 3639 ft | 226 kts | 269° |
| 2026-05-03 23:15 | 26.14405 | -80.66331 | 3513 ft | 225 kts | 269° |
| 2026-05-03 23:15 | 26.14366 | -80.68077 | 3388 ft | 226 kts | 269° |
| 2026-05-03 23:15 | 26.14326 | -80.69808 | 3263 ft | 223 kts | 269° |
| 2026-05-03 23:16 | 26.13942 | -80.71476 | 3143 ft | 226 kts | 238° |
| 2026-05-03 23:16 | 26.12798 | -80.72649 | 3043 ft | 227 kts | 204° |
| 2026-05-03 23:16 | 26.11259 | -80.72915 | 3019 ft | 227 kts | 169° |
| 2026-05-03 23:16 | 26.09852 | -80.72194 | 3019 ft | 225 kts | 135° |
| 2026-05-03 23:17 | 26.08840 | -80.70871 | 3019 ft | 225 kts | 124° |
| 2026-05-03 23:17 | 26.08035 | -80.69398 | 3021 ft | 223 kts | 108° |
| 2026-05-03 23:17 | 26.07816 | -80.67712 | 3018 ft | 221 kts | 88° |
| 2026-05-03 23:17 | 26.07810 | -80.65998 | 3018 ft | 221 kts | 88° |
| 2026-05-03 23:18 | 26.07812 | -80.64285 | 3017 ft | 221 kts | 88° |
| 2026-05-03 23:18 | 26.07812 | -80.63129 | 3016 ft | 221 kts | 89° |
| 2026-05-03 23:18 | 26.07812 | -80.61417 | 3018 ft | 222 kts | 89° |
| 2026-05-03 23:18 | 26.07810 | -80.59703 | 3018 ft | 222 kts | 89° |
| 2026-05-03 23:19 | 26.07837 | -80.58010 | 3024 ft | 221 kts | 88° |
| 2026-05-03 23:19 | 26.07852 | -80.56295 | 3019 ft | 222 kts | 89° |
| 2026-05-03 23:19 | 26.07851 | -80.54578 | 3023 ft | 222 kts | 89° |
| 2026-05-03 23:19 | 26.07846 | -80.52839 | 3018 ft | 222 kts | 89° |
| 2026-05-03 23:20 | 26.07841 | -80.51121 | 3018 ft | 222 kts | 89° |
| 2026-05-03 23:20 | 26.07835 | -80.49405 | 3018 ft | 222 kts | 89° |
| 2026-05-03 23:20 | 26.07830 | -80.47688 | 3016 ft | 222 kts | 89° |
| 2026-05-03 23:20 | 26.07824 | -80.45994 | 3018 ft | 222 kts | 89° |
| 2026-05-03 23:21 | 26.07818 | -80.44277 | 3021 ft | 222 kts | 89° |
| 2026-05-03 23:21 | 26.07812 | -80.42554 | 3019 ft | 223 kts | 89° |
| 2026-05-03 23:21 | 26.07806 | -80.40834 | 3018 ft | 223 kts | 89° |
| 2026-05-03 23:21 | 26.07799 | -80.39114 | 3019 ft | 222 kts | 89° |
| 2026-05-03 23:22 | 26.07785 | -80.35681 | 3013 ft | 216 kts | 89° |
| 2026-05-03 23:22 | 26.07778 | -80.34073 | 2980 ft | 202 kts | 89° |
| 2026-05-03 23:22 | 26.07771 | -80.32535 | 2790 ft | 196 kts | 89° |
| 2026-05-03 23:23 | 26.07765 | -80.31078 | 2570 ft | 181 kts | 89° |
| 2026-05-03 23:23 | 26.07759 | -80.29730 | 2333 ft | 169 kts | 89° |
| 2026-05-03 23:23 | 26.07753 | -80.28462 | 2106 ft | 159 kts | 88° |
| 2026-05-03 23:23 | 26.07747 | -80.27264 | 1919 ft | 151 kts | 88° |
| 2026-05-03 23:24 | 26.07742 | -80.26111 | 1716 ft | 147 kts | 88° |
| 2026-05-03 23:24 | 26.07737 | -80.24979 | 1519 ft | 145 kts | 88° |
| 2026-05-03 23:24 | 26.07731 | -80.23882 | 1341 ft | 140 kts | 88° |
| 2026-05-03 23:24 | 26.07726 | -80.22801 | 1151 ft | 139 kts | 87° |
| 2026-05-03 23:25 | 26.07721 | -80.21731 | 964 ft | 137 kts | 87° |
| 2026-05-03 23:25 | 26.07717 | -80.20687 | 785 ft | 137 kts | 88° |
| 2026-05-03 23:25 | 26.07702 | -80.19616 | 597 ft | 136 kts | 89° |
| 2026-05-03 23:25 | 26.07683 | -80.18580 | 432 ft | 136 kts | 86° |
| 2026-05-03 23:26 | 26.07699 | -80.17516 | 254 ft | 136 kts | 88° |
| 2026-05-03 23:26 | 26.07690 | -80.16465 | 55 ft | 135 kts | 88° |
| 2026-05-03 23:26 | 26.07695 | -80.15519 | 15 ft | 102 kts | 90° |
| 2026-05-03 23:26 | 26.07691 | -80.14927 | 18 ft | 49 kts | 90° |
| 2026-05-03 23:27 | 26.07663 | -80.14695 | 19 ft | 22 kts | 102° |
| 2026-05-03 23:27 | 26.07608 | -80.14569 | 18 ft | 11 kts | 129° |
| 2026-05-03 23:27 | 26.07596 | -80.14552 | 18 ft | 0 kts | 128° |
| 2026-05-03 23:28 | 26.07594 | -80.14549 | 18 ft | 2 kts | 126° |
| 2026-05-03 23:28 | 26.07590 | -80.14541 | 18 ft | 0 kts | 122° |
| 2026-05-03 23:36 | 26.07577 | -80.14536 | 17 ft | 3 kts | 183° |
| 2026-05-03 23:36 | 26.07566 | -80.14542 | 17 ft | 0 kts | 213° |
| 2026-05-03 23:37 | 26.07564 | -80.14545 | 17 ft | 2 kts | 223° |
| 2026-05-03 23:37 | 26.07559 | -80.14574 | 17 ft | 6 kts | 272° |
| 2026-05-03 23:37 | 26.07561 | -80.14623 | 17 ft | 0 kts | 273° |
| 2026-05-03 23:38 | 26.07561 | -80.14626 | 17 ft | 3 kts | 272° |
| 2026-05-03 23:38 | 26.07561 | -80.14696 | 17 ft | 12 kts | 269° |
| 2026-05-03 23:39 | 26.07558 | -80.14801 | 17 ft | 14 kts | 263° |
| 2026-05-03 23:39 | 26.07494 | -80.14890 | 17 ft | 16 kts | 222° |
| 2026-05-03 23:39 | 26.07415 | -80.14977 | 17 ft | 16 kts | 226° |
| 2026-05-03 23:39 | 26.07332 | -80.15070 | 16 ft | 18 kts | 225° |
| 2026-05-03 23:40 | 26.07258 | -80.15127 | 16 ft | 13 kts | 189° |
| 2026-05-03 23:40 | 26.07161 | -80.15128 | 16 ft | 15 kts | 179° |
| 2026-05-03 23:40 | 26.07062 | -80.15128 | 17 ft | 11 kts | 180° |
| 2026-05-03 23:40 | 26.07039 | -80.15128 | 18 ft | 2 kts | 180° |
| 2026-05-03 23:41 | 26.07001 | -80.15128 | 18 ft | 10 kts | 179° |
| 2026-05-03 23:41 | 26.06927 | -80.15127 | 16 ft | 11 kts | 180° |
| 2026-05-03 23:41 | 26.06844 | -80.15130 | 16 ft | 13 kts | 181° |
| 2026-05-03 23:41 | 26.06784 | -80.15118 | 16 ft | 8 kts | 142° |
| 2026-05-03 23:42 | 26.06767 | -80.15059 | 16 ft | 9 kts | 91° |
| 2026-05-03 23:42 | 26.06767 | -80.14984 | 16 ft | 11 kts | 90° |
| 2026-05-03 23:42 | 26.06766 | -80.14895 | 16 ft | 12 kts | 90° |
| 2026-05-03 23:42 | 26.06766 | -80.14793 | 15 ft | 14 kts | 90° |
| 2026-05-03 23:43 | 26.06767 | -80.14679 | 15 ft | 16 kts | 89° |
| 2026-05-03 23:43 | 26.06769 | -80.14552 | 15 ft | 17 kts | 87° |
| 2026-05-03 23:43 | 26.06773 | -80.14433 | 16 ft | 13 kts | 90° |
| 2026-05-03 23:43 | 26.06773 | -80.14329 | 16 ft | 14 kts | 90° |
| 2026-05-03 23:44 | 26.06801 | -80.14250 | 17 ft | 6 kts | 57° |
| 2026-05-03 23:44 | 26.06829 | -80.14212 | 17 ft | 6 kts | 30° |
| 2026-05-03 23:44 | 26.06849 | -80.14211 | 16 ft | 2 kts | 356° |
| 2026-05-03 23:44 | 26.06870 | -80.14211 | 17 ft | 2 kts | 359° |
| 2026-05-03 23:45 | 26.06880 | -80.14211 | 16 ft | 0 kts | 360° |